sensor_id;sensor_type;location;lat;lon;timestamp;pressure;altitude;pressure_sealevel;temperature;humidity
22743;BME280;11538;48.884;8.696;2023-02-16T00:00:22;99807.50;;;1.90;100.00
22743;BME280;11538;48.884;8.696;2023-02-16T00:02:52;99812.25;;;1.88;100.00
22743;BME280;11538;48.884;8.696;2023-02-16T00:05:32;99807.06;;;1.94;100.00
22743;BME280;11538;48.884;8.696;2023-02-16T00:08:00;99807.28;;;1.92;100.00
22743;BME280;11538;48.884;8.696;2023-02-16T00:10:34;99807.44;;;1.97;100.00
22743;BME280;11538;48.884;8.696;2023-02-16T00:13:14;99808.38;;;1.84;100.00
22743;BME280;11538;48.884;8.696;2023-02-16T00:16:02;99812.34;;;1.75;100.00
22743;BME280;11538;48.884;8.696;2023-02-16T00:18:29;99817.09;;;1.73;100.00
22743;BME280;11538;48.884;8.696;2023-02-16T00:20:56;99819.94;;;1.78;100.00
22743;BME280;11538;48.884;8.696;2023-02-16T00:23:22;99822.19;;;1.81;100.00
22743;BME280;11538;48.884;8.696;2023-02-16T00:25:49;99820.56;;;1.80;100.00
22743;BME280;11538;48.884;8.696;2023-02-16T00:28:19;99824.63;;;1.83;100.00
22743;BME280;11538;48.884;8.696;2023-02-16T00:30:46;99820.72;;;1.85;100.00
22743;BME280;11538;48.884;8.696;2023-02-16T00:33:19;99813.06;;;1.89;100.00
22743;BME280;11538;48.884;8.696;2023-02-16T00:35:47;99825.84;;;1.87;100.00
22743;BME280;11538;48.884;8.696;2023-02-16T00:38:14;99820.81;;;1.72;100.00
22743;BME280;11538;48.884;8.696;2023-02-16T00:40:42;99809.94;;;1.67;100.00
22743;BME280;11538;48.884;8.696;2023-02-16T00:43:24;99808.50;;;1.64;100.00
22743;BME280;11538;48.884;8.696;2023-02-16T00:45:54;99806.66;;;1.65;100.00
22743;BME280;11538;48.884;8.696;2023-02-16T00:48:23;99802.69;;;1.74;100.00
22743;BME280;11538;48.884;8.696;2023-02-16T00:50:50;99797.53;;;1.72;100.00
22743;BME280;11538;48.884;8.696;2023-02-16T00:53:17;99803.97;;;1.65;100.00
22743;BME280;11538;48.884;8.696;2023-02-16T00:55:44;99800.44;;;1.71;100.00
22743;BME280;11538;48.884;8.696;2023-02-16T00:58:24;99800.28;;;1.66;100.00
22743;BME280;11538;48.884;8.696;2023-02-16T01:01:05;99790.91;;;1.50;100.00
22743;BME280;11538;48.884;8.696;2023-02-16T01:03:33;99787.16;;;1.57;100.00
22743;BME280;11538;48.884;8.696;2023-02-16T01:06:04;99786.75;;;1.54;100.00
22743;BME280;11538;48.884;8.696;2023-02-16T01:08:49;99791.91;;;1.55;100.00
22743;BME280;11538;48.884;8.696;2023-02-16T01:11:35;99797.19;;;1.62;100.00
22743;BME280;11538;48.884;8.696;2023-02-16T01:14:01;99795.28;;;1.69;100.00
22743;BME280;11538;48.884;8.696;2023-02-16T01:16:38;99792.41;;;1.71;100.00
22743;BME280;11538;48.884;8.696;2023-02-16T01:19:08;99794.06;;;1.72;100.00
22743;BME280;11538;48.884;8.696;2023-02-16T01:21:36;99785.88;;;1.67;100.00
22743;BME280;11538;48.884;8.696;2023-02-16T01:24:02;99794.50;;;1.69;100.00
22743;BME280;11538;48.884;8.696;2023-02-16T01:26:37;99792.69;;;1.63;100.00
22743;BME280;11538;48.884;8.696;2023-02-16T01:29:05;99797.78;;;1.71;100.00
22743;BME280;11538;48.884;8.696;2023-02-16T01:31:31;99798.53;;;1.78;100.00
22743;BME280;11538;48.884;8.696;2023-02-16T01:33:59;99803.66;;;1.80;100.00
22743;BME280;11538;48.884;8.696;2023-02-16T01:36:34;99799.41;;;1.72;100.00
22743;BME280;11538;48.884;8.696;2023-02-16T01:39:02;99805.63;;;1.66;100.00
22743;BME280;11538;48.884;8.696;2023-02-16T01:42:12;99796.59;;;1.60;100.00
22743;BME280;11538;48.884;8.696;2023-02-16T01:44:59;99793.72;;;1.62;100.00
22743;BME280;11538;48.884;8.696;2023-02-16T01:47:41;99798.47;;;1.59;100.00
22743;BME280;11538;48.884;8.696;2023-02-16T01:50:23;99792.34;;;1.52;100.00
22743;BME280;11538;48.884;8.696;2023-02-16T01:52:59;99795.53;;;1.36;100.00
22743;BME280;11538;48.884;8.696;2023-02-16T01:55:36;99788.97;;;1.25;100.00
22743;BME280;11538;48.884;8.696;2023-02-16T01:58:19;99789.34;;;1.28;100.00
22743;BME280;11538;48.884;8.696;2023-02-16T02:03:40;99806.59;;;1.39;100.00
22743;BME280;11538;48.884;8.696;2023-02-16T02:06:35;99797.09;;;1.43;100.00
22743;BME280;11538;48.884;8.696;2023-02-16T02:09:13;99788.44;;;1.48;100.00
22743;BME280;11538;48.884;8.696;2023-02-16T02:12:05;99783.47;;;1.52;100.00
22743;BME280;11538;48.884;8.696;2023-02-16T02:14:38;99774.66;;;1.51;100.00
22743;BME280;11538;48.884;8.696;2023-02-16T02:17:12;99772.00;;;1.44;100.00
22743;BME280;11538;48.884;8.696;2023-02-16T02:20:13;99774.31;;;1.41;100.00
22743;BME280;11538;48.884;8.696;2023-02-16T02:29:45;99773.81;;;1.51;100.00
22743;BME280;11538;48.884;8.696;2023-02-16T02:38:32;99766.97;;;1.62;100.00
22743;BME280;11538;48.884;8.696;2023-02-16T02:41:17;99771.50;;;1.61;100.00
22743;BME280;11538;48.884;8.696;2023-02-16T02:44:01;99764.59;;;1.46;100.00
22743;BME280;11538;48.884;8.696;2023-02-16T02:46:34;99763.72;;;1.53;100.00
22743;BME280;11538;48.884;8.696;2023-02-16T02:49:02;99766.81;;;1.56;100.00
22743;BME280;11538;48.884;8.696;2023-02-16T02:51:29;99769.69;;;1.55;100.00
22743;BME280;11538;48.884;8.696;2023-02-16T03:00:19;99761.19;;;1.33;100.00
22743;BME280;11538;48.884;8.696;2023-02-16T03:03:24;99764.75;;;1.20;100.00
22743;BME280;11538;48.884;8.696;2023-02-16T03:06:06;99760.78;;;1.29;100.00
22743;BME280;11538;48.884;8.696;2023-02-16T03:08:39;99762.03;;;1.26;100.00
22743;BME280;11538;48.884;8.696;2023-02-16T03:11:11;99759.56;;;1.25;100.00
22743;BME280;11538;48.884;8.696;2023-02-16T03:14:14;99763.53;;;1.15;100.00
22743;BME280;11538;48.884;8.696;2023-02-16T03:17:07;99768.88;;;1.15;100.00
22743;BME280;11538;48.884;8.696;2023-02-16T03:19:57;99764.09;;;1.24;100.00
22743;BME280;11538;48.884;8.696;2023-02-16T03:22:44;99767.84;;;1.16;100.00
22743;BME280;11538;48.884;8.696;2023-02-16T03:25:34;99770.94;;;1.13;100.00
22743;BME280;11538;48.884;8.696;2023-02-16T03:28:25;99769.72;;;1.09;100.00
22743;BME280;11538;48.884;8.696;2023-02-16T03:31:17;99762.56;;;1.03;100.00
22743;BME280;11538;48.884;8.696;2023-02-16T03:33:48;99760.28;;;1.07;100.00
22743;BME280;11538;48.884;8.696;2023-02-16T03:36:27;99761.28;;;1.12;100.00
22743;BME280;11538;48.884;8.696;2023-02-16T03:38:56;99763.53;;;1.09;100.00
22743;BME280;11538;48.884;8.696;2023-02-16T03:41:25;99764.41;;;1.02;100.00
22743;BME280;11538;48.884;8.696;2023-02-16T03:43:52;99761.72;;;1.02;100.00
22743;BME280;11538;48.884;8.696;2023-02-16T03:46:19;99763.59;;;1.02;100.00
22743;BME280;11538;48.884;8.696;2023-02-16T03:48:46;99764.88;;;0.93;100.00
22743;BME280;11538;48.884;8.696;2023-02-16T03:51:13;99754.97;;;1.00;100.00
22743;BME280;11538;48.884;8.696;2023-02-16T03:53:40;99767.50;;;0.99;100.00
22743;BME280;11538;48.884;8.696;2023-02-16T03:56:07;99759.47;;;0.99;100.00
22743;BME280;11538;48.884;8.696;2023-02-16T03:58:33;99761.97;;;0.94;100.00
22743;BME280;11538;48.884;8.696;2023-02-16T04:01:00;99763.00;;;1.00;100.00
22743;BME280;11538;48.884;8.696;2023-02-16T04:03:28;99766.28;;;1.02;100.00
22743;BME280;11538;48.884;8.696;2023-02-16T04:05:55;99766.63;;;1.12;100.00
22743;BME280;11538;48.884;8.696;2023-02-16T04:08:22;99759.22;;;1.14;100.00
22743;BME280;11538;48.884;8.696;2023-02-16T04:10:49;99768.28;;;1.13;100.00
22743;BME280;11538;48.884;8.696;2023-02-16T04:13:16;99768.09;;;1.08;100.00
22743;BME280;11538;48.884;8.696;2023-02-16T04:15:43;99770.75;;;1.08;100.00
22743;BME280;11538;48.884;8.696;2023-02-16T04:18:10;99780.63;;;1.08;100.00
22743;BME280;11538;48.884;8.696;2023-02-16T04:20:37;99771.97;;;1.12;100.00
22743;BME280;11538;48.884;8.696;2023-02-16T04:23:04;99785.69;;;1.23;100.00
22743;BME280;11538;48.884;8.696;2023-02-16T04:25:31;99774.41;;;1.21;100.00
22743;BME280;11538;48.884;8.696;2023-02-16T04:27:58;99781.22;;;1.10;100.00
22743;BME280;11538;48.884;8.696;2023-02-16T04:30:29;99784.56;;;0.98;100.00
22743;BME280;11538;48.884;8.696;2023-02-16T04:32:57;99778.00;;;0.94;100.00
22743;BME280;11538;48.884;8.696;2023-02-16T04:35:25;99786.25;;;0.86;100.00
22743;BME280;11538;48.884;8.696;2023-02-16T04:37:52;99787.50;;;0.83;100.00
22743;BME280;11538;48.884;8.696;2023-02-16T04:40:19;99788.72;;;0.81;100.00
22743;BME280;11538;48.884;8.696;2023-02-16T04:42:45;99783.81;;;0.84;100.00
22743;BME280;11538;48.884;8.696;2023-02-16T04:45:13;99781.94;;;0.85;100.00
22743;BME280;11538;48.884;8.696;2023-02-16T04:47:40;99780.28;;;0.91;100.00
22743;BME280;11538;48.884;8.696;2023-02-16T04:50:09;99780.47;;;0.89;100.00
22743;BME280;11538;48.884;8.696;2023-02-16T04:52:36;99776.78;;;0.90;100.00
22743;BME280;11538;48.884;8.696;2023-02-16T04:55:05;99780.91;;;0.86;100.00
22743;BME280;11538;48.884;8.696;2023-02-16T04:57:33;99778.47;;;0.78;100.00
22743;BME280;11538;48.884;8.696;2023-02-16T04:59:59;99780.94;;;0.72;100.00
22743;BME280;11538;48.884;8.696;2023-02-16T05:02:26;99772.75;;;0.74;100.00
22743;BME280;11538;48.884;8.696;2023-02-16T05:04:53;99783.59;;;0.86;100.00
22743;BME280;11538;48.884;8.696;2023-02-16T05:07:20;99777.00;;;0.89;100.00
22743;BME280;11538;48.884;8.696;2023-02-16T05:09:47;99784.22;;;0.81;100.00
22743;BME280;11538;48.884;8.696;2023-02-16T05:12:13;99783.19;;;0.76;100.00
22743;BME280;11538;48.884;8.696;2023-02-16T05:14:59;99778.88;;;0.81;100.00
22743;BME280;11538;48.884;8.696;2023-02-16T05:17:26;99770.66;;;0.83;100.00
22743;BME280;11538;48.884;8.696;2023-02-16T05:19:58;99774.38;;;0.75;100.00
22743;BME280;11538;48.884;8.696;2023-02-16T05:22:26;99774.81;;;0.72;100.00
22743;BME280;11538;48.884;8.696;2023-02-16T05:25:00;99775.22;;;0.69;100.00
22743;BME280;11538;48.884;8.696;2023-02-16T05:27:29;99764.94;;;0.72;100.00
22743;BME280;11538;48.884;8.696;2023-02-16T05:29:57;99765.13;;;0.78;100.00
22743;BME280;11538;48.884;8.696;2023-02-16T05:32:24;99769.44;;;0.79;100.00
22743;BME280;11538;48.884;8.696;2023-02-16T05:34:51;99774.56;;;0.80;100.00
22743;BME280;11538;48.884;8.696;2023-02-16T05:37:18;99784.19;;;0.88;100.00
22743;BME280;11538;48.884;8.696;2023-02-16T05:39:45;99776.53;;;0.98;100.00
22743;BME280;11538;48.884;8.696;2023-02-16T05:42:12;99776.34;;;1.00;100.00
22743;BME280;11538;48.884;8.696;2023-02-16T05:44:39;99790.75;;;0.99;100.00
22743;BME280;11538;48.884;8.696;2023-02-16T05:47:06;99787.47;;;0.90;100.00
22743;BME280;11538;48.884;8.696;2023-02-16T05:49:33;99778.47;;;0.78;100.00
22743;BME280;11538;48.884;8.696;2023-02-16T05:52:00;99788.72;;;0.81;100.00
22743;BME280;11538;48.884;8.696;2023-02-16T05:54:27;99788.97;;;0.79;100.00
22743;BME280;11538;48.884;8.696;2023-02-16T05:56:54;99789.56;;;0.81;100.00
22743;BME280;11538;48.884;8.696;2023-02-16T05:59:21;99785.63;;;0.91;100.00
22743;BME280;11538;48.884;8.696;2023-02-16T06:01:48;99791.78;;;0.91;100.00
22743;BME280;11538;48.884;8.696;2023-02-16T06:04:19;99792.63;;;0.85;100.00
22743;BME280;11538;48.884;8.696;2023-02-16T06:06:47;99798.56;;;0.87;100.00
22743;BME280;11538;48.884;8.696;2023-02-16T06:09:14;99801.47;;;0.79;100.00
22743;BME280;11538;48.884;8.696;2023-02-16T06:11:42;99803.34;;;0.78;100.00
22743;BME280;11538;48.884;8.696;2023-02-16T06:14:18;99799.00;;;0.84;100.00
22743;BME280;11538;48.884;8.696;2023-02-16T06:16:48;99811.38;;;0.71;100.00
22743;BME280;11538;48.884;8.696;2023-02-16T06:19:18;99811.97;;;0.73;100.00
22743;BME280;11538;48.884;8.696;2023-02-16T06:21:45;99806.63;;;0.80;100.00
22743;BME280;11538;48.884;8.696;2023-02-16T06:24:13;99808.88;;;0.77;100.00
22743;BME280;11538;48.884;8.696;2023-02-16T06:26:40;99811.34;;;0.78;100.00
22743;BME280;11538;48.884;8.696;2023-02-16T06:29:09;99805.97;;;0.85;100.00
22743;BME280;11538;48.884;8.696;2023-02-16T06:31:36;99805.19;;;0.84;100.00
22743;BME280;11538;48.884;8.696;2023-02-16T06:34:04;99802.50;;;0.78;100.00
22743;BME280;11538;48.884;8.696;2023-02-16T06:36:31;99803.34;;;0.78;100.00
22743;BME280;11538;48.884;8.696;2023-02-16T06:38:59;99809.31;;;0.73;100.00
22743;BME280;11538;48.884;8.696;2023-02-16T06:41:25;99803.53;;;0.77;100.00
22743;BME280;11538;48.884;8.696;2023-02-16T06:44:04;99810.53;;;0.78;100.00
22743;BME280;11538;48.884;8.696;2023-02-16T06:46:31;99810.53;;;0.84;100.00
22743;BME280;11538;48.884;8.696;2023-02-16T06:48:59;99807.81;;;0.91;100.00
22743;BME280;11538;48.884;8.696;2023-02-16T06:51:27;99813.16;;;0.91;100.00
22743;BME280;11538;48.884;8.696;2023-02-16T06:53:54;99812.13;;;0.99;100.00
22743;BME280;11538;48.884;8.696;2023-02-16T06:56:21;99808.41;;;1.00;100.00
22743;BME280;11538;48.884;8.696;2023-02-16T06:58:48;99809.22;;;1.00;100.00
22743;BME280;11538;48.884;8.696;2023-02-16T07:01:16;99818.44;;;1.05;100.00
22743;BME280;11538;48.884;8.696;2023-02-16T07:03:50;99813.34;;;0.96;100.00
22743;BME280;11538;48.884;8.696;2023-02-16T07:06:18;99820.13;;;0.92;100.00
22743;BME280;11538;48.884;8.696;2023-02-16T07:08:46;99820.75;;;0.94;100.00
22743;BME280;11538;48.884;8.696;2023-02-16T07:11:13;99826.50;;;0.98;100.00
22743;BME280;11538;48.884;8.696;2023-02-16T07:13:40;99832.03;;;1.03;100.00
22743;BME280;11538;48.884;8.696;2023-02-16T07:16:07;99823.38;;;1.08;100.00
22743;BME280;11538;48.884;8.696;2023-02-16T07:18:35;99827.06;;;1.07;100.00
22743;BME280;11538;48.884;8.696;2023-02-16T07:21:02;99827.25;;;1.12;100.00
22743;BME280;11538;48.884;8.696;2023-02-16T07:23:30;99826.00;;;1.21;100.00
22743;BME280;11538;48.884;8.696;2023-02-16T07:25:56;99822.50;;;1.21;100.00
22743;BME280;11538;48.884;8.696;2023-02-16T07:28:24;99824.34;;;1.20;100.00
22743;BME280;11538;48.884;8.696;2023-02-16T07:30:51;99824.16;;;1.22;100.00
22743;BME280;11538;48.884;8.696;2023-02-16T07:33:18;99830.91;;;1.24;100.00
22743;BME280;11538;48.884;8.696;2023-02-16T07:35:46;99831.94;;;1.23;100.00
22743;BME280;11538;48.884;8.696;2023-02-16T07:38:13;99840.38;;;1.20;100.00
22743;BME280;11538;48.884;8.696;2023-02-16T07:40:40;99838.31;;;1.22;100.00
22743;BME280;11538;48.884;8.696;2023-02-16T07:43:07;99834.78;;;1.28;100.00
22743;BME280;11538;48.884;8.696;2023-02-16T07:45:34;99833.97;;;1.35;100.00
22743;BME280;11538;48.884;8.696;2023-02-16T07:48:01;99837.44;;;1.42;100.00
22743;BME280;11538;48.884;8.696;2023-02-16T07:50:28;99839.25;;;1.48;100.00
22743;BME280;11538;48.884;8.696;2023-02-16T07:52:55;99832.44;;;1.52;100.00
22743;BME280;11538;48.884;8.696;2023-02-16T07:55:22;99829.34;;;1.55;100.00
22743;BME280;11538;48.884;8.696;2023-02-16T07:57:49;99829.94;;;1.57;100.00
22743;BME280;11538;48.884;8.696;2023-02-16T08:00:20;99832.81;;;1.63;100.00
22743;BME280;11538;48.884;8.696;2023-02-16T08:02:48;99833.19;;;1.66;100.00
22743;BME280;11538;48.884;8.696;2023-02-16T08:05:15;99834.78;;;1.74;100.00
22743;BME280;11538;48.884;8.696;2023-02-16T08:07:43;99829.00;;;1.77;100.00
22743;BME280;11538;48.884;8.696;2023-02-16T08:10:13;99829.63;;;1.79;100.00
22743;BME280;11538;48.884;8.696;2023-02-16T08:12:43;99841.09;;;1.86;100.00
22743;BME280;11538;48.884;8.696;2023-02-16T08:15:10;99837.69;;;2.04;100.00
22743;BME280;11538;48.884;8.696;2023-02-16T08:17:38;99842.59;;;2.33;100.00
22743;BME280;11538;48.884;8.696;2023-02-16T08:20:06;99838.41;;;2.62;100.00
22743;BME280;11538;48.884;8.696;2023-02-16T08:22:34;99828.72;;;2.87;100.00
22743;BME280;11538;48.884;8.696;2023-02-16T08:25:02;99843.94;;;3.05;99.36
22743;BME280;11538;48.884;8.696;2023-02-16T08:27:32;99843.78;;;3.18;98.64
22743;BME280;11538;48.884;8.696;2023-02-16T08:30:00;99848.56;;;3.35;97.17
22743;BME280;11538;48.884;8.696;2023-02-16T08:32:27;99839.06;;;3.51;96.09
22743;BME280;11538;48.884;8.696;2023-02-16T08:34:54;99837.50;;;3.62;94.46
22743;BME280;11538;48.884;8.696;2023-02-16T08:37:23;99844.91;;;3.78;93.73
22743;BME280;11538;48.884;8.696;2023-02-16T08:39:50;99842.47;;;3.89;92.73
22743;BME280;11538;48.884;8.696;2023-02-16T08:42:17;99839.69;;;3.95;92.37
22743;BME280;11538;48.884;8.696;2023-02-16T08:44:44;99836.91;;;4.02;91.46
22743;BME280;11538;48.884;8.696;2023-02-16T08:47:12;99840.00;;;4.30;90.89
22743;BME280;11538;48.884;8.696;2023-02-16T08:49:39;99835.44;;;4.54;89.23
22743;BME280;11538;48.884;8.696;2023-02-16T08:52:06;99842.34;;;4.62;88.30
22743;BME280;11538;48.884;8.696;2023-02-16T08:54:32;99838.25;;;4.71;87.94
22743;BME280;11538;48.884;8.696;2023-02-16T08:57:00;99846.44;;;4.88;87.68
22743;BME280;11538;48.884;8.696;2023-02-16T08:59:29;99845.44;;;5.06;86.89
22743;BME280;11538;48.884;8.696;2023-02-16T09:01:57;99840.03;;;5.30;85.18
22743;BME280;11538;48.884;8.696;2023-02-16T09:04:26;99839.56;;;5.33;85.12
22743;BME280;11538;48.884;8.696;2023-02-16T09:06:56;99841.09;;;5.58;84.13
22743;BME280;11538;48.884;8.696;2023-02-16T09:09:25;99842.28;;;5.79;83.34
22743;BME280;11538;48.884;8.696;2023-02-16T09:11:52;99838.63;;;5.85;82.04
22743;BME280;11538;48.884;8.696;2023-02-16T09:14:19;99845.41;;;5.88;82.50
22743;BME280;11538;48.884;8.696;2023-02-16T09:16:48;99847.34;;;6.05;82.01
22743;BME280;11538;48.884;8.696;2023-02-16T09:19:18;99845.16;;;6.19;81.57
22743;BME280;11538;48.884;8.696;2023-02-16T09:21:47;99837.72;;;6.26;81.03
22743;BME280;11538;48.884;8.696;2023-02-16T09:24:16;99843.50;;;6.35;80.56
22743;BME280;11538;48.884;8.696;2023-02-16T09:26:43;99843.44;;;6.47;80.43
22743;BME280;11538;48.884;8.696;2023-02-16T09:29:12;99835.81;;;6.61;80.02
22743;BME280;11538;48.884;8.696;2023-02-16T09:31:41;99836.94;;;6.82;79.78
22743;BME280;11538;48.884;8.696;2023-02-16T09:34:21;99839.03;;;6.97;78.78
22743;BME280;11538;48.884;8.696;2023-02-16T09:36:49;99836.25;;;7.14;77.67
22743;BME280;11538;48.884;8.696;2023-02-16T09:39:16;99827.47;;;7.24;77.53
22743;BME280;11538;48.884;8.696;2023-02-16T09:42:12;99834.13;;;7.38;76.99
22743;BME280;11538;48.884;8.696;2023-02-16T09:44:52;99836.50;;;7.57;76.26
22743;BME280;11538;48.884;8.696;2023-02-16T09:47:30;99830.78;;;7.81;75.79
22743;BME280;11538;48.884;8.696;2023-02-16T09:53:07;99823.44;;;8.03;74.20
22743;BME280;11538;48.884;8.696;2023-02-16T09:56:26;99832.41;;;8.09;73.69
22743;BME280;11538;48.884;8.696;2023-02-16T09:59:10;99820.63;;;8.26;73.67
22743;BME280;11538;48.884;8.696;2023-02-16T10:01:59;99828.16;;;8.51;73.51
22743;BME280;11538;48.884;8.696;2023-02-16T10:04:47;99823.41;;;8.69;73.09
22743;BME280;11538;48.884;8.696;2023-02-16T10:13:44;99826.66;;;9.29;72.84
22743;BME280;11538;48.884;8.696;2023-02-16T10:16:28;99827.53;;;9.40;70.36
22743;BME280;11538;48.884;8.696;2023-02-16T10:18:59;99827.56;;;9.50;71.85
22743;BME280;11538;48.884;8.696;2023-02-16T10:21:29;99824.31;;;9.59;70.87
22743;BME280;11538;48.884;8.696;2023-02-16T10:24:02;99822.97;;;9.72;70.72
22743;BME280;11538;48.884;8.696;2023-02-16T10:26:48;99813.00;;;9.93;71.69
22743;BME280;11538;48.884;8.696;2023-02-16T10:29:20;99816.53;;;10.14;74.00
22743;BME280;11538;48.884;8.696;2023-02-16T10:35:08;99818.72;;;10.48;73.88
22743;BME280;11538;48.884;8.696;2023-02-16T10:37:56;99804.84;;;10.65;73.02
22743;BME280;11538;48.884;8.696;2023-02-16T10:40:55;99813.75;;;10.76;70.28
22743;BME280;11538;48.884;8.696;2023-02-16T10:44:10;99808.28;;;10.92;73.72
22743;BME280;11538;48.884;8.696;2023-02-16T10:46:45;99805.50;;;11.12;72.34
22743;BME280;11538;48.884;8.696;2023-02-16T10:49:14;99803.56;;;11.23;71.24
22743;BME280;11538;48.884;8.696;2023-02-16T10:51:48;99793.19;;;11.31;72.05
22743;BME280;11538;48.884;8.696;2023-02-16T10:54:21;99796.91;;;11.45;71.95
22743;BME280;11538;48.884;8.696;2023-02-16T11:01:58;99805.53;;;12.03;71.87
22743;BME280;11538;48.884;8.696;2023-02-16T11:04:59;99806.25;;;12.19;69.92
22743;BME280;11538;48.884;8.696;2023-02-16T11:07:29;99800.13;;;12.32;68.66
22743;BME280;11538;48.884;8.696;2023-02-16T11:10:00;99795.22;;;12.58;67.37
22743;BME280;11538;48.884;8.696;2023-02-16T11:12:43;99793.28;;;12.89;66.28
22743;BME280;11538;48.884;8.696;2023-02-16T11:18:03;99776.28;;;13.40;65.00
22743;BME280;11538;48.884;8.696;2023-02-16T11:20:53;99772.53;;;13.74;67.67
22743;BME280;11538;48.884;8.696;2023-02-16T11:28:42;99761.88;;;15.00;59.40
22743;BME280;11538;48.884;8.696;2023-02-16T11:31:14;99762.09;;;15.41;55.87
22743;BME280;11538;48.884;8.696;2023-02-16T11:34:25;99755.66;;;15.82;59.99
22743;BME280;11538;48.884;8.696;2023-02-16T11:42:48;99755.25;;;16.43;52.64
22743;BME280;11538;48.884;8.696;2023-02-16T11:45:32;99748.72;;;16.62;52.78
22743;BME280;11538;48.884;8.696;2023-02-16T11:48:09;99751.06;;;16.14;56.69
22743;BME280;11538;48.884;8.696;2023-02-16T11:50:54;99752.72;;;15.92;52.90
22743;BME280;11538;48.884;8.696;2023-02-16T11:53:26;99754.47;;;16.20;59.08
22743;BME280;11538;48.884;8.696;2023-02-16T11:56:26;99749.00;;;16.51;50.90
22743;BME280;11538;48.884;8.696;2023-02-16T12:04:53;99729.19;;;17.83;48.71
22743;BME280;11538;48.884;8.696;2023-02-16T12:13:45;99716.94;;;17.10;50.25
22743;BME280;11538;48.884;8.696;2023-02-16T12:16:25;99703.91;;;17.42;51.55
22743;BME280;11538;48.884;8.696;2023-02-16T12:21:44;99696.88;;;16.92;49.71
22743;BME280;11538;48.884;8.696;2023-02-16T12:27:11;99693.78;;;16.58;53.47
22743;BME280;11538;48.884;8.696;2023-02-16T12:32:52;99691.81;;;17.52;48.48
22743;BME280;11538;48.884;8.696;2023-02-16T12:44:16;99699.84;;;17.22;42.69
22743;BME280;11538;48.884;8.696;2023-02-16T12:46:59;99694.78;;;16.89;46.06
22743;BME280;11538;48.884;8.696;2023-02-16T12:49:52;99690.75;;;16.28;45.81
22743;BME280;11538;48.884;8.696;2023-02-16T12:52:39;99692.44;;;15.84;50.24
22743;BME280;11538;48.884;8.696;2023-02-16T12:55:26;99678.28;;;15.59;53.48
22743;BME280;11538;48.884;8.696;2023-02-16T13:00:53;99679.31;;;15.26;49.82
22743;BME280;11538;48.884;8.696;2023-02-16T13:03:35;99682.91;;;15.13;54.03
22743;BME280;11538;48.884;8.696;2023-02-16T13:07:14;99676.41;;;14.72;48.09
22743;BME280;11538;48.884;8.696;2023-02-16T13:09:40;99670.72;;;14.54;54.53
22743;BME280;11538;48.884;8.696;2023-02-16T13:12:42;99668.31;;;14.39;57.31
22743;BME280;11538;48.884;8.696;2023-02-16T13:15:22;99667.59;;;14.33;52.45
22743;BME280;11538;48.884;8.696;2023-02-16T13:18:02;99672.34;;;14.41;51.99
22743;BME280;11538;48.884;8.696;2023-02-16T13:20:31;99668.31;;;14.81;49.50
22743;BME280;11538;48.884;8.696;2023-02-16T13:23:31;99673.72;;;15.54;46.79
22743;BME280;11538;48.884;8.696;2023-02-16T13:26:26;99670.78;;;16.28;44.39
22743;BME280;11538;48.884;8.696;2023-02-16T13:38:44;99674.56;;;16.09;44.45
22743;BME280;11538;48.884;8.696;2023-02-16T13:41:50;99666.59;;;15.67;42.92
22743;BME280;11538;48.884;8.696;2023-02-16T13:44:37;99667.25;;;15.73;43.70
22743;BME280;11538;48.884;8.696;2023-02-16T13:47:19;99668.06;;;15.96;43.07
22743;BME280;11538;48.884;8.696;2023-02-16T13:50:00;99666.28;;;15.91;46.49
22743;BME280;11538;48.884;8.696;2023-02-16T13:52:38;99672.84;;;15.68;46.50
22743;BME280;11538;48.884;8.696;2023-02-16T13:55:32;99673.00;;;15.40;44.08
22743;BME280;11538;48.884;8.696;2023-02-16T14:00:48;99664.28;;;15.15;45.19
22743;BME280;11538;48.884;8.696;2023-02-16T14:05:45;99659.13;;;14.76;47.32
22743;BME280;11538;48.884;8.696;2023-02-16T14:08:28;99654.47;;;14.63;47.15
22743;BME280;11538;48.884;8.696;2023-02-16T14:11:01;99651.41;;;14.51;49.25
22743;BME280;11538;48.884;8.696;2023-02-16T14:16:28;99652.44;;;14.27;48.30
22743;BME280;11538;48.884;8.696;2023-02-16T14:19:16;99648.78;;;14.17;47.35
22743;BME280;11538;48.884;8.696;2023-02-16T14:21:47;99651.53;;;14.17;48.17
22743;BME280;11538;48.884;8.696;2023-02-16T14:27:10;99651.31;;;14.00;50.80
22743;BME280;11538;48.884;8.696;2023-02-16T14:32:28;99654.59;;;13.83;50.60
22743;BME280;11538;48.884;8.696;2023-02-16T14:38:00;99641.94;;;13.59;49.03
22743;BME280;11538;48.884;8.696;2023-02-16T14:43:14;99633.78;;;13.40;49.02
22743;BME280;11538;48.884;8.696;2023-02-16T14:46:15;99633.88;;;13.35;49.54
22743;BME280;11538;48.884;8.696;2023-02-16T15:00:17;99630.47;;;13.24;52.99
22743;BME280;11538;48.884;8.696;2023-02-16T15:03:21;99612.28;;;13.19;52.90
22743;BME280;11538;48.884;8.696;2023-02-16T15:06:02;99610.59;;;13.23;53.14
22743;BME280;11538;48.884;8.696;2023-02-16T15:08:43;99604.03;;;13.24;51.99
22743;BME280;11538;48.884;8.696;2023-02-16T15:13:44;99609.56;;;13.19;52.47
22743;BME280;11538;48.884;8.696;2023-02-16T15:16:15;99611.56;;;13.13;52.51
22743;BME280;11538;48.884;8.696;2023-02-16T15:18:54;99611.34;;;13.10;55.27
22743;BME280;11538;48.884;8.696;2023-02-16T15:21:25;99618.28;;;13.02;52.76
22743;BME280;11538;48.884;8.696;2023-02-16T15:23:59;99624.31;;;12.99;54.20
22743;BME280;11538;48.884;8.696;2023-02-16T15:26:33;99623.88;;;12.92;52.98
22743;BME280;11538;48.884;8.696;2023-02-16T15:29:25;99621.59;;;12.80;53.83
22743;BME280;11538;48.884;8.696;2023-02-16T15:31:54;99621.72;;;12.69;54.16
22743;BME280;11538;48.884;8.696;2023-02-16T15:34:32;99613.63;;;12.64;54.71
22743;BME280;11538;48.884;8.696;2023-02-16T15:37:01;99609.59;;;12.62;54.52
22743;BME280;11538;48.884;8.696;2023-02-16T15:39:45;99615.31;;;12.60;54.10
22743;BME280;11538;48.884;8.696;2023-02-16T15:42:32;99607.75;;;12.57;54.71
22743;BME280;11538;48.884;8.696;2023-02-16T15:45:32;99600.75;;;12.51;54.82
22743;BME280;11538;48.884;8.696;2023-02-16T15:48:35;99604.06;;;12.48;54.77